Time;durP1;ratioP1;P1;durP2;ratioP2;P2;SDS_P1;SDS_P2;PMS_P1;PMS_P2;Temp;Humidity;BMP_temperature;BMP_pressure;BME280_temperature;BME280_humidity;BME280_pressure;Samples;Min_cycle;Max_cycle;Signal;HPM_P1;HPM_P2
2022/09/21 00:01:19;;;;;;;5.37;4.10;;;9.80;99.90;;;;;;5032878;28;20821;-66
2022/09/21 00:03:45;;;;;;;5.90;4.27;;;9.80;99.90;;;;;;5032729;28;20504;-66
2022/09/21 00:06:14;;;;;;;6.57;4.03;;;9.80;99.90;;;;;;5032600;28;20890;-67
2022/09/21 00:08:41;;;;;;;4.43;4.03;;;9.70;99.90;;;;;;5032403;28;20433;-67
2022/09/21 00:11:10;;;;;;;8.70;4.43;;;9.70;99.90;;;;;;5032542;28;20435;-66
2022/09/21 00:13:36;;;;;;;7.07;4.73;;;9.80;99.90;;;;;;5031525;28;20436;-67
2022/09/21 00:16:04;;;;;;;6.37;4.30;;;9.70;99.90;;;;;;5032528;28;20412;-66
2022/09/21 00:18:30;;;;;;;5.77;4.67;;;9.70;99.90;;;;;;5032714;28;20500;-68
2022/09/21 00:20:55;;;;;;;6.00;4.20;;;9.70;99.90;;;;;;5031464;28;21023;-66
2022/09/21 00:23:22;;;;;;;8.20;4.50;;;9.70;99.90;;;;;;5032533;28;20597;-66
2022/09/21 00:25:48;;;;;;;7.80;5.50;;;9.70;99.90;;;;;;5033022;28;20189;-67
2022/09/21 00:28:14;;;;;;;5.63;4.30;;;9.70;99.90;;;;;;5066890;23;20491;-69
2022/09/21 00:30:40;;;;;;;6.23;4.80;;;9.60;99.90;;;;;;5023428;28;20184;-69
2022/09/21 00:33:06;;;;;;;6.73;4.83;;;9.60;99.90;;;;;;5034432;28;20172;-70
2022/09/21 00:35:32;;;;;;;5.47;4.27;;;9.60;99.90;;;;;;5032832;28;20396;-70
2022/09/21 00:38:01;;;;;;;6.33;4.83;;;9.60;99.90;;;;;;5032130;28;20698;-69
2022/09/21 00:40:28;;;;;;;8.90;5.33;;;9.60;99.90;;;;;;5034619;28;20459;-68
2022/09/21 00:42:53;;;;;;;6.27;4.40;;;9.60;99.90;;;;;;5036329;28;20403;-68
2022/09/21 00:45:22;;;;;;;4.20;3.80;;;9.60;99.90;;;;;;5038945;28;20768;-68
2022/09/21 00:47:51;;;;;;;5.07;4.57;;;9.60;99.90;;;;;;5056249;28;20197;-68
2022/09/21 00:50:21;;;;;;;5.07;4.23;;;9.60;99.90;;;;;;5056650;28;20411;-69
2022/09/21 00:52:52;;;;;;;6.30;4.07;;;9.60;99.90;;;;;;5056473;28;20547;-69
2022/09/21 00:55:27;;;;;;;5.97;4.23;;;9.60;99.90;;;;;;5056716;28;20400;-69
2022/09/21 00:57:58;;;;;;;9.40;5.53;;;9.60;99.90;;;;;;5038343;28;20435;-69
2022/09/21 01:00:24;;;;;;;6.97;5.10;;;9.60;99.90;;;;;;5055811;28;20450;-68
2022/09/21 01:02:50;;;;;;;5.10;4.17;;;9.60;99.90;;;;;;5035458;28;20418;-69
2022/09/21 01:05:15;;;;;;;8.03;5.43;;;9.50;99.90;;;;;;5036012;28;20196;-68
2022/09/21 01:07:45;;;;;;;7.33;5.10;;;9.50;99.90;;;;;;5018183;28;20459;-70
2022/09/21 01:10:15;;;;;;;5.67;5.07;;;9.50;99.90;;;;;;5056179;28;20171;-69
2022/09/21 01:13:01;;;;;;;5.90;5.30;;;9.40;99.90;;;;;;5055540;28;20913;-68
2022/09/21 01:15:26;;;;;;;6.67;5.17;;;9.40;99.90;;;;;;5036507;28;20397;-69
2022/09/21 01:18:10;;;;;;;6.57;5.67;;;9.40;99.90;;;;;;5055476;28;20422;-69
2022/09/21 01:20:47;;;;;;;5.70;4.57;;;9.40;99.90;;;;;;5055712;28;20715;-68
2022/09/21 01:23:42;;;;;;;7.10;4.53;;;9.40;99.90;;;;;;5055561;28;20388;-69
2022/09/21 01:26:33;;;;;;;7.40;5.73;;;9.40;99.90;;;;;;5055401;28;20376;-69
2022/09/21 01:29:07;;;;;;;6.47;4.90;;;9.30;99.90;;;;;;5055166;28;20757;-69
2022/09/21 01:31:40;;;;;;;8.03;6.00;;;9.20;99.90;;;;;;5055607;28;20446;-69
2022/09/21 01:34:14;;;;;;;6.17;5.30;;;9.20;99.90;;;;;;5043852;28;20423;-68
2022/09/21 01:36:41;;;;;;;7.97;5.47;;;9.20;99.90;;;;;;5035911;28;20420;-68
2022/09/21 01:39:13;;;;;;;7.17;5.90;;;9.20;99.90;;;;;;5042943;28;20425;-69
2022/09/21 01:41:40;;;;;;;5.00;4.60;;;9.20;99.90;;;;;;5055893;28;20951;-69
2022/09/21 01:44:11;;;;;;;6.90;6.20;;;9.20;99.90;;;;;;5055984;28;20926;-68
2022/09/21 01:46:37;;;;;;;5.90;5.33;;;9.20;99.90;;;;;;5055503;28;20427;-68
2022/09/21 01:49:12;;;;;;;7.77;5.30;;;9.20;99.90;;;;;;5055172;28;20400;-68
2022/09/21 01:51:43;;;;;;;6.00;5.37;;;9.30;99.90;;;;;;5040218;28;20479;-69
2022/09/21 01:54:24;;;;;;;7.70;6.80;;;9.20;99.90;;;;;;5035383;28;20747;-69
2022/09/21 01:57:10;;;;;;;6.87;5.20;;;9.20;99.90;;;;;;5035576;28;20424;-69
2022/09/21 01:59:46;;;;;;;6.50;5.73;;;9.20;99.90;;;;;;5034537;28;20428;-69
2022/09/21 02:02:30;;;;;;;6.97;6.27;;;9.30;99.90;;;;;;5035595;28;20425;-69
2022/09/21 02:04:59;;;;;;;7.43;4.93;;;9.20;99.90;;;;;;5051855;28;20422;-69
2022/09/21 02:07:25;;;;;;;6.00;5.50;;;9.10;99.90;;;;;;5054680;28;20465;-69
2022/09/21 02:09:53;;;;;;;9.20;5.60;;;9.00;99.90;;;;;;5037120;28;20413;-69
2022/09/21 02:12:19;;;;;;;13.30;6.00;;;9.00;99.90;;;;;;5034742;28;20398;-69
2022/09/21 02:14:45;;;;;;;7.00;5.20;;;9.00;99.90;;;;;;5033774;28;20422;-69
2022/09/21 02:17:28;;;;;;;8.27;5.43;;;9.00;99.90;;;;;;5034640;28;20190;-69
2022/09/21 02:20:21;;;;;;;5.40;4.90;;;9.00;99.90;;;;;;5047352;28;20679;-69
2022/09/21 02:23:08;;;;;;;6.67;5.83;;;9.00;99.90;;;;;;5054463;28;20436;-69
2022/09/21 02:25:49;;;;;;;8.00;5.63;;;9.00;99.90;;;;;;5054661;28;20389;-69
2022/09/21 02:28:27;;;;;;;5.97;5.10;;;9.00;99.90;;;;;;5041617;28;20463;-69
2022/09/21 02:31:01;;;;;;;6.33;5.73;;;9.00;99.90;;;;;;5034682;28;20508;-69
2022/09/21 02:33:36;;;;;;;6.20;5.63;;;9.00;99.90;;;;;;5016640;28;20415;-69
2022/09/21 02:36:11;;;;;;;12.57;5.93;;;9.00;99.90;;;;;;5034620;28;20766;-69
2022/09/21 02:38:52;;;;;;;9.87;5.97;;;8.90;99.90;;;;;;5037624;28;20602;-69
2022/09/21 02:41:44;;;;;;;6.23;5.63;;;8.90;99.90;;;;;;5054761;28;20438;-68
2022/09/21 02:44:39;;;;;;;5.67;5.17;;;8.90;99.90;;;;;;5054832;28;20798;-68
2022/09/21 02:47:20;;;;;;;7.93;5.97;;;8.90;99.90;;;;;;5049549;28;20431;-69
2022/09/21 02:49:52;;;;;;;6.80;5.73;;;8.90;99.90;;;;;;5054142;28;20386;-68
2022/09/21 02:52:19;;;;;;;11.87;6.37;;;8.90;99.90;;;;;;5054147;28;20408;-68
2022/09/21 02:54:49;;;;;;;9.67;6.43;;;8.80;99.90;;;;;;5053901;28;20413;-68
2022/09/21 02:57:19;;;;;;;5.60;5.10;;;8.80;99.90;;;;;;5054123;28;20799;-68
2022/09/21 02:59:44;;;;;;;8.33;6.03;;;8.70;99.90;;;;;;5053689;28;20406;-69
2022/09/21 03:02:11;;;;;;;6.50;5.83;;;8.70;99.90;;;;;;5035360;28;20454;-68
2022/09/21 03:04:41;;;;;;;7.27;5.27;;;8.70;99.90;;;;;;5036773;28;20168;-68
2022/09/21 03:07:10;;;;;;;11.80;6.20;;;8.60;99.90;;;;;;5034282;28;20814;-68
2022/09/21 03:09:35;;;;;;;5.70;5.20;;;8.50;99.90;;;;;;5033945;28;20395;-69
2022/09/21 03:12:01;;;;;;;8.17;6.50;;;8.50;99.90;;;;;;5033819;28;20407;-69
2022/09/21 03:14:26;;;;;;;10.00;6.77;;;8.50;99.90;;;;;;5044518;28;20172;-69
2022/09/21 03:16:53;;;;;;;7.50;6.33;;;8.50;99.90;;;;;;5053611;28;20267;-69
2022/09/21 03:19:19;;;;;;;9.93;5.90;;;8.50;99.90;;;;;;5052422;28;20174;-69
2022/09/21 03:21:44;;;;;;;6.80;5.93;;;8.60;99.90;;;;;;5046428;28;20512;-69
2022/09/21 03:24:10;;;;;;;6.63;5.93;;;8.70;99.90;;;;;;5053858;28;20246;-69
2022/09/21 03:26:35;;;;;;;8.43;6.20;;;8.70;99.90;;;;;;5053331;28;20193;-69
2022/09/21 03:29:02;;;;;;;9.67;7.03;;;8.80;99.90;;;;;;5053915;28;20233;-68
2022/09/21 03:31:28;;;;;;;6.83;6.07;;;8.80;99.90;;;;;;5053439;28;20164;-68
2022/09/21 03:33:54;;;;;;;8.00;6.00;;;8.80;99.90;;;;;;5054403;28;20418;-68
2022/09/21 03:36:19;;;;;;;8.40;6.80;;;8.80;99.90;;;;;;5052908;28;20425;-68
2022/09/21 03:38:45;;;;;;;9.10;7.53;;;8.80;99.90;;;;;;5052053;28;20732;-68
2022/09/21 03:41:12;;;;;;;10.73;7.20;;;8.80;99.90;;;;;;5053271;28;20196;-69
2022/09/21 03:43:37;;;;;;;9.23;6.97;;;8.80;99.90;;;;;;5053581;28;20200;-69
2022/09/21 03:46:03;;;;;;;6.37;5.77;;;8.80;99.90;;;;;;5053946;28;20984;-68
2022/09/21 03:48:31;;;;;;;8.43;6.90;;;8.70;99.90;;;;;;5049032;28;20194;-69
2022/09/21 03:50:57;;;;;;;7.37;6.67;;;8.70;99.90;;;;;;5033279;28;20593;-69
2022/09/21 03:53:22;;;;;;;9.60;7.80;;;8.70;99.90;;;;;;5033364;28;20484;-69
2022/09/21 03:55:48;;;;;;;6.73;6.03;;;8.70;99.90;;;;;;5053177;28;20165;-68
2022/09/21 03:58:14;;;;;;;8.20;6.27;;;8.70;99.90;;;;;;5052860;28;20190;-68
2022/09/21 04:00:39;;;;;;;11.70;9.10;;;8.60;99.90;;;;;;5037255;28;20548;-68
2022/09/21 04:03:05;;;;;;;7.33;6.57;;;8.60;99.90;;;;;;5033204;28;20171;-68
2022/09/21 04:05:31;;;;;;;8.80;6.60;;;8.60;99.90;;;;;;5033241;28;20248;-68
2022/09/21 04:07:56;;;;;;;9.37;6.97;;;8.60;99.90;;;;;;5033135;28;20195;-68
2022/09/21 04:10:31;;;;;;;13.00;6.80;;;8.60;99.90;;;;;;5033233;28;20183;-69
2022/09/21 04:12:59;;;;;;;8.57;6.73;;;8.60;99.90;;;;;;5033050;28;20247;-68
2022/09/21 04:15:25;;;;;;;7.60;6.77;;;8.60;99.90;;;;;;5035138;28;20428;-69
2022/09/21 04:17:52;;;;;;;10.67;9.00;;;8.50;99.90;;;;;;5037048;28;20465;-68
2022/09/21 04:20:18;;;;;;;11.27;7.80;;;8.50;99.90;;;;;;5036917;28;20185;-69
2022/09/21 04:22:45;;;;;;;9.70;8.67;;;8.40;99.90;;;;;;5037596;28;20932;-70
2022/09/21 04:25:11;;;;;;;8.83;7.93;;;8.40;99.90;;;;;;5037418;28;20402;-69
2022/09/21 04:27:37;;;;;;;10.03;8.60;;;8.40;99.90;;;;;;5038836;28;20454;-70
2022/09/21 04:30:03;;;;;;;10.27;7.07;;;8.40;99.90;;;;;;5058071;28;20821;-69
2022/09/21 04:32:29;;;;;;;11.47;8.87;;;8.40;99.90;;;;;;5056872;28;20179;-69
2022/09/21 04:34:54;;;;;;;9.87;8.30;;;8.40;99.90;;;;;;5056676;28;20410;-68
2022/09/21 04:37:20;;;;;;;10.80;9.50;;;8.40;99.90;;;;;;5056654;28;20214;-68
2022/09/21 04:39:46;;;;;;;12.17;9.30;;;8.30;99.90;;;;;;5048020;28;20172;-74
2022/09/21 04:42:12;;;;;;;10.87;8.87;;;8.30;99.90;;;;;;5053288;28;20195;-69
2022/09/21 04:44:37;;;;;;;13.10;8.57;;;8.30;99.90;;;;;;5056613;28;20516;-69
2022/09/21 04:47:03;;;;;;;14.50;10.00;;;8.20;99.90;;;;;;5056418;28;20192;-69
2022/09/21 04:49:28;;;;;;;11.03;8.80;;;8.20;99.90;;;;;;5057019;28;20242;-69
2022/09/21 04:51:54;;;;;;;10.43;9.33;;;8.20;99.90;;;;;;5055845;28;20174;-68
2022/09/21 04:54:19;;;;;;;8.87;7.60;;;8.20;99.90;;;;;;5052523;28;20176;-70
2022/09/21 04:56:45;;;;;;;9.80;8.73;;;8.10;99.90;;;;;;5048158;28;20195;-69
2022/09/21 04:59:10;;;;;;;11.97;9.53;;;8.10;99.90;;;;;;5055959;28;20179;-69
2022/09/21 05:01:36;;;;;;;12.00;8.70;;;8.10;99.90;;;;;;5053939;28;20267;-69
2022/09/21 05:04:02;;;;;;;10.33;9.33;;;8.10;99.90;;;;;;5056113;28;20163;-70
2022/09/21 05:06:29;;;;;;;9.60;8.20;;;8.00;99.90;;;;;;5056245;28;20163;-68
2022/09/21 05:11:39;;;;;;;11.20;8.10;;;8.10;99.90;;;;;;5036361;28;20480;-70
2022/09/21 05:14:05;;;;;;;12.07;9.40;;;8.10;99.90;;;;;;5036619;28;20406;-69
2022/09/21 05:16:30;;;;;;;10.53;8.20;;;8.10;99.90;;;;;;5036754;28;20175;-70
2022/09/21 05:18:56;;;;;;;9.13;8.13;;;8.10;99.90;;;;;;5036454;28;20172;-69
2022/09/21 05:21:22;;;;;;;10.47;9.30;;;8.20;99.90;;;;;;5036337;28;20203;-69
2022/09/21 05:23:47;;;;;;;11.57;9.80;;;8.20;99.90;;;;;;5018154;28;20167;-73
2022/09/21 05:26:13;;;;;;;9.67;7.80;;;8.20;99.90;;;;;;5035154;28;20169;-69
2022/09/21 05:28:38;;;;;;;10.17;9.17;;;8.20;99.90;;;;;;5035613;28;20206;-69
2022/09/21 05:31:16;;;;;;;9.50;8.50;;;8.20;99.90;;;;;;5035768;28;20167;-68
2022/09/21 05:33:49;;;;;;;14.40;9.43;;;8.20;99.90;;;;;;5035956;28;20160;-68
2022/09/21 05:36:49;;;;;;;9.17;8.17;;;8.20;99.90;;;;;;5035447;28;20419;-69
2022/09/21 05:39:15;;;;;;;11.63;9.20;;;8.20;99.90;;;;;;5019180;28;20976;-69
2022/09/21 05:41:41;;;;;;;10.60;9.50;;;8.20;99.90;;;;;;5054653;28;20532;-70
2022/09/21 05:44:10;;;;;;;9.43;8.53;;;8.20;99.90;;;;;;5056441;28;20399;-67
2022/09/21 05:46:47;;;;;;;10.33;8.80;;;8.20;99.90;;;;;;5056424;28;20399;-70
2022/09/21 05:49:34;;;;;;;10.37;9.27;;;8.30;99.90;;;;;;5038735;28;20426;-70
2022/09/21 05:52:24;;;;;;;15.97;10.10;;;8.40;99.90;;;;;;5056845;28;20406;-69
2022/09/21 05:55:05;;;;;;;10.60;9.07;;;8.40;99.90;;;;;;5024655;28;20425;-69
2022/09/21 05:58:03;;;;;;;10.17;8.47;;;8.30;99.90;;;;;;5035336;28;20434;-69
2022/09/21 06:00:45;;;;;;;16.43;11.27;;;8.40;99.90;;;;;;5035502;28;20910;-70
2022/09/21 06:03:28;;;;;;;11.60;10.40;;;8.40;99.90;;;;;;5055159;28;20865;-69
2022/09/21 06:05:53;;;;;;;12.50;10.10;;;8.40;99.90;;;;;;5054875;28;20416;-69
2022/09/21 06:08:19;;;;;;;10.97;9.40;;;8.50;99.90;;;;;;5055141;28;20508;-68
2022/09/21 06:10:45;;;;;;;9.50;8.50;;;8.60;99.90;;;;;;5055255;28;20171;-70
2022/09/21 06:13:10;;;;;;;9.20;8.13;;;8.50;99.90;;;;;;5036614;28;20181;-72
2022/09/21 06:15:37;;;;;;;11.60;9.50;;;8.60;99.90;;;;;;5054988;28;20203;-70
2022/09/21 06:18:04;;;;;;;15.03;9.80;;;8.50;99.90;;;;;;5055147;28;20184;-69
2022/09/21 06:20:30;;;;;;;10.37;9.37;;;8.60;99.90;;;;;;5054683;28;20806;-67
2022/09/21 06:23:03;;;;;;;11.93;10.57;;;8.60;99.90;;;;;;5054508;28;20410;-67
2022/09/21 06:25:29;;;;;;;10.60;9.50;;;8.60;99.90;;;;;;5054884;28;20147;-68
2022/09/21 06:27:55;;;;;;;10.47;9.13;;;8.70;99.90;;;;;;5068567;22;20829;-66
2022/09/21 06:30:20;;;;;;;10.23;8.77;;;8.70;99.90;;;;;;5073601;28;20566;-68
2022/09/21 06:32:46;;;;;;;11.10;9.63;;;8.70;99.90;;;;;;5074588;28;20195;-67
2022/09/21 06:35:11;;;;;;;10.40;9.30;;;8.70;99.90;;;;;;5074020;28;20165;-67
2022/09/21 06:37:38;;;;;;;11.10;8.70;;;8.80;99.90;;;;;;5073119;28;20194;-67
2022/09/21 06:40:05;;;;;;;13.80;9.50;;;8.90;99.90;;;;;;5073670;28;20169;-66
2022/09/21 06:42:30;;;;;;;9.23;8.33;;;9.00;99.90;;;;;;5057063;28;20421;-65
2022/09/21 06:44:56;;;;;;;9.87;8.20;;;9.10;99.90;;;;;;5053762;28;20490;-67
2022/09/21 06:47:22;;;;;;;9.50;8.50;;;9.10;99.90;;;;;;5053834;28;20192;-67
2022/09/21 06:49:47;;;;;;;11.33;8.80;;;9.20;99.90;;;;;;5054396;28;20164;-67
2022/09/21 06:52:13;;;;;;;11.70;9.60;;;9.20;99.90;;;;;;5053849;28;20293;-68
2022/09/21 06:54:39;;;;;;;11.60;9.47;;;9.30;99.90;;;;;;5053717;28;20666;-68
2022/09/21 06:57:05;;;;;;;8.40;7.50;;;9.40;99.90;;;;;;5053419;28;20205;-68
2022/09/21 06:59:30;;;;;;;14.47;10.63;;;9.50;99.90;;;;;;5053503;28;20878;-68
2022/09/21 07:01:57;;;;;;;11.63;9.87;;;9.50;99.90;;;;;;5055433;28;20218;-67
2022/09/21 07:04:23;;;;;;;12.20;10.00;;;9.60;99.90;;;;;;5073558;28;20283;-68
2022/09/21 07:06:49;;;;;;;12.63;9.70;;;9.70;99.90;;;;;;5073538;28;20492;-68
2022/09/21 07:09:15;;;;;;;11.10;9.97;;;9.90;99.90;;;;;;5073469;28;20240;-69
2022/09/21 07:11:41;;;;;;;12.20;10.90;;;10.00;99.90;;;;;;5072899;28;20435;-69
2022/09/21 07:14:07;;;;;;;12.13;10.20;;;10.20;99.90;;;;;;5073396;28;20202;-68
2022/09/21 07:16:32;;;;;;;11.00;9.63;;;10.30;99.90;;;;;;5073049;28;20603;-68
2022/09/21 07:18:58;;;;;;;11.10;9.07;;;10.30;99.90;;;;;;5073093;28;20458;-68
2022/09/21 07:21:24;;;;;;;12.00;10.80;;;10.40;99.90;;;;;;5073214;28;20653;-69
2022/09/21 07:23:49;;;;;;;11.70;10.30;;;10.50;99.90;;;;;;5072971;28;20179;-71
2022/09/21 07:26:15;;;;;;;10.70;9.70;;;10.60;99.90;;;;;;5072832;28;20405;-67
2022/09/21 07:28:41;;;;;;;12.47;10.60;;;10.70;99.90;;;;;;5072625;28;20586;-67
2022/09/21 07:31:12;;;;;;;10.87;9.60;;;10.80;99.90;;;;;;5073029;28;20638;-67
2022/09/21 07:33:39;;;;;;;12.87;10.50;;;10.90;99.90;;;;;;5073658;28;20389;-68
2022/09/21 07:36:09;;;;;;;12.63;10.63;;;11.00;99.90;;;;;;5073640;28;20930;-68
2022/09/21 07:38:36;;;;;;;12.73;10.10;;;11.10;99.90;;;;;;5072795;28;20441;-68
2022/09/21 07:41:02;;;;;;;13.13;10.20;;;11.10;99.90;;;;;;5072629;28;20980;-67
2022/09/21 07:43:28;;;;;;;14.80;11.20;;;11.20;99.90;;;;;;5072720;28;20404;-68
2022/09/21 07:45:57;;;;;;;14.90;9.10;;;11.30;99.90;;;;;;5065795;28;20423;-67
2022/09/21 07:48:23;;;;;;;12.53;9.37;;;11.20;99.90;;;;;;5069214;28;20229;-68
2022/09/21 07:50:49;;;;;;;14.20;9.20;;;11.00;99.90;;;;;;5073107;28;20538;-68
2022/09/21 07:53:17;;;;;;;13.60;10.00;;;11.20;99.90;;;;;;5073353;28;20508;-68
2022/09/21 07:55:43;;;;;;;12.37;8.23;;;11.40;99.90;;;;;;5072935;28;20235;-68
2022/09/21 08:00:53;;;;;;;8.70;7.80;;;11.50;99.90;;;;;;5072624;28;20622;-67
2022/09/21 08:03:19;;;;;;;12.30;10.23;;;11.50;99.90;;;;;;5073108;28;20838;-67
2022/09/21 08:05:44;;;;;;;10.77;9.30;;;11.40;99.90;;;;;;5072437;28;20170;-68
2022/09/21 08:08:10;;;;;;;10.30;8.40;;;11.20;99.90;;;;;;5071193;28;20206;-68
2022/09/21 08:10:36;;;;;;;10.97;9.07;;;11.10;99.90;;;;;;5072371;28;20252;-68
2022/09/21 08:13:01;;;;;;;10.13;9.13;;;11.10;99.90;;;;;;5065066;28;20171;-67
2022/09/21 08:15:27;;;;;;;11.30;9.07;;;11.20;99.90;;;;;;5051769;28;20171;-69
2022/09/21 08:17:53;;;;;;;10.43;8.30;;;11.40;99.90;;;;;;5052821;28;20648;-69
2022/09/21 08:20:19;;;;;;;11.60;9.00;;;11.30;99.90;;;;;;5052209;28;20186;-69
2022/09/21 08:22:44;;;;;;;10.77;8.37;;;11.30;99.90;;;;;;5052680;28;20399;-68
2022/09/21 08:25:10;;;;;;;10.63;8.20;;;11.30;99.90;;;;;;5052425;28;20406;-68
2022/09/21 08:27:36;;;;;;;15.63;8.60;;;11.40;99.90;;;;;;5052033;28;20244;-68
2022/09/21 08:30:03;;;;;;;8.90;7.03;;;11.50;99.90;;;;;;5052193;28;20633;-68
2022/09/21 08:32:29;;;;;;;9.00;8.00;;;11.70;99.90;;;;;;5052293;28;20408;-68
2022/09/21 08:34:55;;;;;;;10.63;8.63;;;11.80;99.90;;;;;;5056391;28;20445;-67
2022/09/21 08:37:21;;;;;;;15.00;9.30;;;12.00;99.90;;;;;;5059584;28;20491;-68
2022/09/21 08:39:47;;;;;;;8.63;7.83;;;12.10;99.90;;;;;;5052607;28;20624;-68
2022/09/21 08:42:42;;;;;;;14.50;8.20;;;12.30;99.90;;;;;;5052235;28;20241;-69
2022/09/21 08:45:15;;;;;;;11.73;8.17;;;12.30;99.90;;;;;;5047832;28;20855;-67
2022/09/21 08:47:50;;;;;;;8.90;8.00;;;12.40;99.90;;;;;;5052223;28;20932;-67
2022/09/21 08:50:43;;;;;;;10.00;7.17;;;12.50;99.90;;;;;;5052486;28;20407;-68
2022/09/21 08:53:19;;;;;;;10.47;7.57;;;12.60;99.90;;;;;;5052336;28;20433;-67
2022/09/21 08:55:45;;;;;;;6.33;5.70;;;12.80;99.90;;;;;;5052855;28;20467;-67
2022/09/21 08:58:26;;;;;;;11.60;6.60;;;13.00;99.90;;;;;;5051835;28;20560;-66
2022/09/21 09:01:18;;;;;;;7.70;6.60;;;13.00;99.90;;;;;;5053099;28;20199;-68
2022/09/21 09:03:53;;;;;;;8.30;7.40;;;13.10;99.90;;;;;;5072601;28;20913;-67
2022/09/21 09:06:23;;;;;;;7.33;6.10;;;12.80;99.90;;;;;;5059262;28;20834;-67
2022/09/21 09:09:03;;;;;;;8.07;6.03;;;12.80;99.90;;;;;;5055656;28;20940;-68
2022/09/21 09:11:51;;;;;;;8.47;6.03;;;12.60;99.90;;;;;;5055830;28;20408;-68
2022/09/21 09:14:35;;;;;;;5.60;5.03;;;12.70;99.90;;;;;;5056123;28;20388;-67
2022/09/21 09:17:17;;;;;;;7.20;5.17;;;13.00;99.90;;;;;;5054211;28;20509;-67
2022/09/21 09:19:55;;;;;;;5.60;5.00;;;13.10;99.90;;;;;;5055970;28;20802;-67
2022/09/21 09:22:28;;;;;;;5.80;4.90;;;13.20;99.90;;;;;;5053816;28;20449;-66
2022/09/21 09:24:58;;;;;;;9.23;4.80;;;13.40;99.90;;;;;;5071701;28;20424;-68
2022/09/21 09:27:36;;;;;;;4.03;3.50;;;13.70;99.90;;;;;;5075477;28;20445;-68
2022/09/21 09:30:08;;;;;;;3.60;2.70;;;14.00;99.90;;;;;;5075278;28;20454;-67
2022/09/21 09:32:39;;;;;;;9.00;5.00;;;13.80;99.90;;;;;;5075093;28;20410;-67
2022/09/21 09:35:35;;;;;;;4.30;3.90;;;13.80;99.90;;;;;;5058840;28;20788;-67
2022/09/21 09:38:16;;;;;;;6.10;3.57;;;14.00;99.90;;;;;;5055137;28;20425;-69
2022/09/21 09:40:50;;;;;;;3.90;3.40;;;13.80;99.90;;;;;;5055155;28;20437;-67
2022/09/21 09:43:32;;;;;;;7.30;3.90;;;13.60;99.90;;;;;;5071702;28;20504;-69
2022/09/21 09:46:19;;;;;;;7.20;3.60;;;13.70;99.90;;;;;;5075052;28;20386;-69
2022/09/21 09:48:48;;;;;;;10.57;3.00;;;13.90;99.90;;;;;;5076643;28;20412;-67
2022/09/21 09:51:13;;;;;;;6.83;3.83;;;14.00;99.90;;;;;;5074940;28;20490;-68
2022/09/21 09:53:40;;;;;;;6.20;4.40;;;13.90;99.90;;;;;;5074549;28;20916;-67
2022/09/21 09:56:08;;;;;;;6.40;3.90;;;13.70;99.90;;;;;;5074996;28;20196;-69
2022/09/21 09:58:45;;;;;;;4.10;2.90;;;13.70;99.90;;;;;;5074281;28;20423;-67
2022/09/21 10:01:41;;;;;;;4.30;3.27;;;13.60;99.90;;;;;;5074677;28;20515;-68
2022/09/21 10:04:12;;;;;;;3.80;2.83;;;13.70;99.90;;;;;;5074759;28;20386;-68
2022/09/21 10:06:38;;;;;;;2.90;2.40;;;14.00;99.90;;;;;;5056742;28;20783;-67
2022/09/21 10:09:33;;;;;;;4.50;2.90;;;14.40;99.90;;;;;;5054304;28;20529;-67
2022/09/21 10:12:24;;;;;;;4.17;2.90;;;14.50;99.90;;;;;;5054343;28;20399;-68
2022/09/21 10:14:52;;;;;;;2.50;2.30;;;14.50;99.90;;;;;;5054249;28;20397;-68
2022/09/21 10:17:18;;;;;;;3.67;2.67;;;14.60;99.90;;;;;;5056481;28;20987;-68
2022/09/21 10:19:45;;;;;;;3.50;2.00;;;14.90;99.90;;;;;;5074166;28;20459;-67
2022/09/21 10:22:18;;;;;;;4.43;2.83;;;15.00;99.90;;;;;;5072771;28;20498;-67
2022/09/21 10:24:55;;;;;;;8.00;2.97;;;14.90;99.90;;;;;;5067560;28;20415;-67
2022/09/21 10:27:43;;;;;;;3.20;1.90;;;15.00;99.90;;;;;;5053908;28;20827;-67
2022/09/21 10:30:29;;;;;;;3.00;2.43;;;15.40;99.90;;;;;;5052214;28;20418;-68
2022/09/21 10:32:57;;;;;;;2.53;2.33;;;15.80;99.90;;;;;;5053765;28;20480;-68
2022/09/21 10:35:23;;;;;;;5.60;2.57;;;15.90;99.90;;;;;;5053531;28;20743;-68
2022/09/21 10:38:17;;;;;;;3.57;2.03;;;16.00;99.90;;;;;;5053407;28;20430;-69
2022/09/21 10:40:43;;;;;;;2.37;1.60;;;15.90;99.90;;;;;;5053658;28;20449;-67
2022/09/21 10:43:24;;;;;;;4.27;1.97;;;15.60;99.90;;;;;;5053445;28;20437;-68
2022/09/21 10:45:55;;;;;;;2.20;1.97;;;16.20;99.90;;;;;;5053946;28;20409;-67
2022/09/21 10:48:23;;;;;;;1.57;1.27;;;16.70;99.90;;;;;;5053618;28;21003;-68
2022/09/21 10:50:50;;;;;;;2.03;1.10;;;17.70;99.90;;;;;;5053662;28;20481;-68
2022/09/21 10:53:22;;;;;;;3.07;1.20;;;18.00;99.00;;;;;;5053556;28;20405;-68
2022/09/21 10:55:59;;;;;;;3.20;1.17;;;18.90;98.10;;;;;;5053542;28;20377;-68
2022/09/21 10:58:25;;;;;;;1.27;1.03;;;18.30;98.60;;;;;;5053046;28;20429;-68
2022/09/21 11:00:52;;;;;;;1.87;0.90;;;17.70;98.60;;;;;;5056477;28;20477;-68
2022/09/21 11:03:27;;;;;;;3.50;1.60;;;17.50;99.10;;;;;;5073364;28;20632;-68
2022/09/21 11:05:54;;;;;;;1.87;1.20;;;17.00;99.20;;;;;;5073951;28;20396;-68
2022/09/21 11:08:41;;;;;;;2.20;1.30;;;17.00;99.90;;;;;;5073099;28;20420;-68
2022/09/21 11:11:20;;;;;;;2.33;1.33;;;17.10;99.90;;;;;;5056425;28;20528;-67
2022/09/21 11:13:55;;;;;;;2.07;1.47;;;16.90;99.90;;;;;;5052910;28;20399;-68
2022/09/21 11:16:38;;;;;;;2.30;1.17;;;17.80;98.90;;;;;;5053343;28;20763;-68
2022/09/21 11:19:32;;;;;;;2.20;1.10;;;18.50;96.80;;;;;;5053056;28;20466;-67
2022/09/21 11:22:06;;;;;;;3.80;1.47;;;17.80;97.80;;;;;;5026743;28;20472;-68
2022/09/21 11:24:43;;;;;;;1.63;1.20;;;18.80;97.10;;;;;;5052317;28;20386;-68
2022/09/21 11:27:21;;;;;;;2.50;1.40;;;20.20;95.10;;;;;;5056566;28;20455;-68
2022/09/21 11:30:06;;;;;;;3.00;1.20;;;20.50;94.10;;;;;;5061774;28;20512;-67
2022/09/21 11:33:09;;;;;;;1.53;1.20;;;20.40;93.50;;;;;;5052882;28;20408;-68
2022/09/21 11:36:13;;;;;;;2.30;1.43;;;19.10;95.30;;;;;;4991987;28;20431;-69
2022/09/21 11:39:02;;;;;;;1.83;1.10;;;18.40;96.80;;;;;;5052746;28;20421;-68
2022/09/21 11:41:36;;;;;;;1.50;1.10;;;17.50;97.10;;;;;;5068863;28;20543;-69
2022/09/21 11:44:38;;;;;;;2.00;1.30;;;17.10;97.60;;;;;;5052763;28;20381;-69
2022/09/21 11:47:19;;;;;;;1.57;0.90;;;17.30;97.80;;;;;;5052560;28;20400;-68
2022/09/21 11:49:50;;;;;;;4.87;1.30;;;17.30;98.10;;;;;;5052747;28;20392;-68
2022/09/21 11:52:50;;;;;;;1.97;1.10;;;17.50;97.80;;;;;;5052774;28;20753;-67
2022/09/21 11:55:56;;;;;;;1.60;1.20;;;17.90;97.50;;;;;;5049356;28;20451;-67
2022/09/21 11:58:45;;;;;;;2.47;1.83;;;17.80;97.50;;;;;;5052776;28;20911;-68
2022/09/21 12:01:53;;;;;;;2.90;1.20;;;17.60;97.60;;;;;;5052207;28;20441;-69
2022/09/21 12:04:42;;;;;;;1.30;0.80;;;17.30;98.50;;;;;;5025497;28;20445;-68
2022/09/21 12:07:10;;;;;;;8.60;1.60;;;18.90;96.20;;;;;;5052629;28;20922;-69
2022/09/21 12:09:46;;;;;;;1.20;0.80;;;20.10;94.10;;;;;;5052620;28;20401;-69
2022/09/21 12:12:23;;;;;;;2.67;0.97;;;21.60;92.40;;;;;;5052698;28;20416;-69
2022/09/21 12:15:10;;;;;;;2.23;1.10;;;22.30;89.00;;;;;;5052908;28;20481;-68
2022/09/21 12:17:43;;;;;;;1.90;1.00;;;20.30;87.80;;;;;;5052609;28;20950;-68
2022/09/21 12:20:27;;;;;;;2.70;0.90;;;18.50;91.40;;;;;;5052364;28;20421;-68
2022/09/21 12:23:03;;;;;;;2.90;0.80;;;18.10;93.70;;;;;;5052394;28;20885;-68
2022/09/21 12:25:40;;;;;;;1.47;0.90;;;18.20;93.90;;;;;;5052170;28;20397;-69
2022/09/21 12:28:23;;;;;;;1.20;0.90;;;18.20;94.00;;;;;;5069770;23;20503;-71
2022/09/21 12:30:54;;;;;;;1.37;0.90;;;18.60;93.60;;;;;;5032206;28;20452;-69
2022/09/21 12:33:45;;;;;;;1.57;1.13;;;19.90;91.70;;;;;;5052932;28;20382;-69
2022/09/21 12:36:19;;;;;;;1.13;0.80;;;19.40;91.00;;;;;;5054222;28;20447;-71
2022/09/21 12:38:56;;;;;;;2.70;1.17;;;18.50;92.50;;;;;;5057004;28;20448;-72
2022/09/21 12:41:44;;;;;;;1.77;1.23;;;17.90;92.90;;;;;;5056591;28;20432;-75
2022/09/21 12:44:18;;;;;;;1.33;0.90;;;18.40;93.60;;;;;;5018495;28;20405;-73
2022/09/21 12:47:07;;;;;;;1.73;0.93;;;19.70;91.90;;;;;;5018622;28;20397;-72
2022/09/21 12:49:42;;;;;;;1.97;1.00;;;21.40;90.80;;;;;;5036399;28;20423;-72
2022/09/21 12:52:09;;;;;;;0.90;0.80;;;23.10;85.00;;;;;;5036167;28;20390;-70
2022/09/21 12:54:45;;;;;;;4.50;0.87;;;24.70;77.50;;;;;;5036370;28;20439;-72
2022/09/21 12:57:42;;;;;;;1.87;0.80;;;24.80;73.70;;;;;;5036157;28;20374;-70
2022/09/21 13:00:21;;;;;;;3.47;1.00;;;26.30;69.60;;;;;;5033139;28;20418;-72
2022/09/21 13:03:06;;;;;;;1.40;0.80;;;26.50;67.60;;;;;;5036332;28;20394;-72
2022/09/21 13:06:05;;;;;;;2.13;0.70;;;27.50;60.90;;;;;;5036146;28;20393;-72
2022/09/21 13:08:40;;;;;;;1.50;0.80;;;26.00;61.10;;;;;;5036106;28;20418;-71
2022/09/21 13:11:07;;;;;;;2.43;0.90;;;24.40;65.10;;;;;;5036170;28;20401;-69
2022/09/21 13:13:38;;;;;;;1.70;0.80;;;22.70;67.90;;;;;;5035544;28;20509;-72
2022/09/21 13:16:22;;;;;;;1.10;0.80;;;21.20;73.80;;;;;;5036124;28;20386;-72
2022/09/21 13:19:12;;;;;;;2.20;0.80;;;20.60;74.60;;;;;;5050758;28;20504;-71
2022/09/21 13:21:38;;;;;;;1.27;0.83;;;20.40;77.30;;;;;;5056320;28;20798;-70